Time;durP1;ratioP1;P1;durP2;ratioP2;P2;SDS_P1;SDS_P2;PMS_P1;PMS_P2;Temp;Humidity;BMP_temperature;BMP_pressure;BME280_temperature;BME280_humidity;BME280_pressure;Samples;Min_cycle;Max_cycle;Signal;HPM_P1;HPM_P2
2022/10/06 00:00:13;;;;;;;3.35;0.80;;;16.70;99.90;;;;;;5029782;28;20489;-77
2022/10/06 00:02:40;;;;;;;4.05;1.05;;;16.60;99.90;;;;;;5029692;28;20053;-77
2022/10/06 00:05:07;;;;;;;3.47;0.88;;;16.60;99.90;;;;;;5029449;28;20056;-77
2022/10/06 00:07:35;;;;;;;4.63;1.30;;;16.60;99.90;;;;;;5029682;28;20068;-77
2022/10/06 00:10:02;;;;;;;6.20;1.50;;;16.60;99.90;;;;;;5029120;28;20056;-77
2022/10/06 00:12:29;;;;;;;6.78;1.90;;;16.50;99.90;;;;;;5028803;28;20041;-77
2022/10/06 00:14:56;;;;;;;8.02;1.88;;;16.50;99.90;;;;;;5029108;28;20049;-77
2022/10/06 00:17:24;;;;;;;6.30;1.58;;;16.50;99.90;;;;;;5029377;28;20052;-77
2022/10/06 00:19:51;;;;;;;7.75;1.80;;;16.60;99.90;;;;;;5029387;28;20406;-77
2022/10/06 00:22:18;;;;;;;5.38;1.52;;;16.40;99.90;;;;;;5029408;28;20048;-77
2022/10/06 00:24:44;;;;;;;6.88;1.65;;;16.40;99.90;;;;;;5028896;28;20040;-77
2022/10/06 00:27:11;;;;;;;3.78;1.23;;;16.40;99.90;;;;;;5011533;28;20433;-78
2022/10/06 00:29:41;;;;;;;6.00;1.40;;;16.40;99.90;;;;;;5026998;28;20048;-77
2022/10/06 00:32:08;;;;;;;5.63;1.48;;;16.40;99.90;;;;;;5019974;28;20051;-77
2022/10/06 00:34:36;;;;;;;6.40;1.38;;;16.40;99.90;;;;;;5017958;28;20072;-75
2022/10/06 00:37:03;;;;;;;5.18;1.15;;;16.40;99.90;;;;;;5003506;28;20054;-77
2022/10/06 00:39:30;;;;;;;8.25;1.33;;;16.40;99.90;;;;;;5020072;28;20060;-77
2022/10/06 00:41:58;;;;;;;8.30;1.20;;;16.30;99.90;;;;;;5016058;28;20063;-77
2022/10/06 00:44:25;;;;;;;6.97;1.48;;;16.30;99.90;;;;;;5007771;28;20069;-77
2022/10/06 00:46:53;;;;;;;6.68;1.55;;;16.20;99.90;;;;;;5028514;28;20056;-77
2022/10/06 00:49:23;;;;;;;7.88;1.55;;;16.20;99.90;;;;;;5011190;28;20068;-77
2022/10/06 00:51:54;;;;;;;8.63;1.80;;;16.20;99.90;;;;;;5029049;28;20053;-77
2022/10/06 00:54:21;;;;;;;6.97;1.52;;;16.10;99.90;;;;;;5028743;28;20045;-78
2022/10/06 00:56:48;;;;;;;7.45;1.88;;;16.10;99.90;;;;;;5028953;28;20049;-77
2022/10/06 00:59:17;;;;;;;9.25;1.70;;;16.10;99.90;;;;;;5011229;28;20060;-77
2022/10/06 01:01:48;;;;;;;9.57;2.00;;;16.00;99.90;;;;;;5011378;28;20041;-77
2022/10/06 01:04:16;;;;;;;;;;;16.00;99.90;;;;;;5029314;28;20120;-77
2022/10/06 01:06:46;;;;;;;6.05;1.48;;;16.00;99.90;;;;;;5010900;28;19932;-77
2022/10/06 01:09:15;;;;;;;5.82;1.75;;;16.00;99.90;;;;;;5027561;28;20061;-77
2022/10/06 01:11:42;;;;;;;11.95;1.77;;;15.90;99.90;;;;;;5027559;28;20132;-77
2022/10/06 01:14:10;;;;;;;9.10;1.75;;;15.90;99.90;;;;;;5028792;28;20482;-77
2022/10/06 01:16:39;;;;;;;9.35;1.83;;;15.90;99.90;;;;;;5028698;28;20076;-77
2022/10/06 01:19:10;;;;;;;9.40;1.88;;;15.90;99.90;;;;;;5027411;28;20525;-77
2022/10/06 01:21:40;;;;;;;8.68;1.95;;;15.80;99.90;;;;;;5027498;28;20577;-77
2022/10/06 01:24:10;;;;;;;8.82;2.30;;;15.80;99.90;;;;;;5013036;28;20057;-77
2022/10/06 01:26:39;;;;;;;7.63;1.85;;;15.80;99.90;;;;;;5032374;28;20056;-77
2022/10/06 01:29:07;;;;;;;8.77;1.80;;;15.80;99.90;;;;;;5031131;28;20136;-77
2022/10/06 01:31:34;;;;;;;8.75;1.90;;;15.80;99.90;;;;;;5027971;28;20038;-77
2022/10/06 01:34:01;;;;;;;8.40;2.10;;;15.80;99.90;;;;;;5024154;28;20046;-77
2022/10/06 01:36:28;;;;;;;10.00;2.03;;;15.80;99.90;;;;;;4994672;28;20042;-77
2022/10/06 01:38:55;;;;;;;9.60;2.15;;;15.80;99.90;;;;;;5012671;28;20042;-77
2022/10/06 01:41:25;;;;;;;6.13;1.95;;;15.70;99.90;;;;;;5013953;28;20045;-77
2022/10/06 01:43:52;;;;;;;9.52;2.15;;;15.70;99.90;;;;;;5021142;28;20052;-77
2022/10/06 01:46:20;;;;;;;10.55;1.80;;;15.70;99.90;;;;;;5018816;28;20049;-77
2022/10/06 01:48:47;;;;;;;8.93;1.90;;;15.70;99.90;;;;;;5016828;28;20048;-77
2022/10/06 01:51:16;;;;;;;10.43;2.10;;;15.70;99.90;;;;;;5030750;28;20077;-77
2022/10/06 01:53:43;;;;;;;12.73;2.28;;;15.70;99.90;;;;;;5024802;28;20038;-77
2022/10/06 01:56:10;;;;;;;6.35;1.85;;;15.70;99.90;;;;;;5026093;28;20041;-77
2022/10/06 01:58:39;;;;;;;15.25;2.75;;;15.60;99.90;;;;;;5020645;28;20045;-77
2022/10/06 02:01:07;;;;;;;10.45;1.88;;;15.60;99.90;;;;;;5008498;28;20474;-77
2022/10/06 02:03:36;;;;;;;9.45;2.13;;;15.70;99.90;;;;;;5020449;28;20034;-77
2022/10/06 02:06:03;;;;;;;9.80;2.30;;;15.60;99.90;;;;;;5021496;28;20048;-78
2022/10/06 02:08:31;;;;;;;13.23;2.22;;;15.80;99.90;;;;;;5001316;28;20392;-77
2022/10/06 02:11:05;;;;;;;11.80;2.13;;;15.60;99.90;;;;;;5021881;28;20053;-77
2022/10/06 02:13:32;;;;;;;14.77;2.60;;;15.60;99.90;;;;;;5030044;28;20100;-77
2022/10/06 02:16:01;;;;;;;9.98;3.05;;;15.60;99.90;;;;;;5012063;28;20513;-77
2022/10/06 02:18:28;;;;;;;13.23;2.83;;;15.60;99.90;;;;;;5030092;28;20161;-77
2022/10/06 02:20:54;;;;;;;10.05;2.30;;;15.60;99.90;;;;;;5030231;28;20046;-77
2022/10/06 02:23:21;;;;;;;11.52;2.53;;;15.60;99.90;;;;;;5031549;28;20132;-77
2022/10/06 02:25:48;;;;;;;11.85;2.80;;;15.60;99.90;;;;;;5013304;28;20052;-77
2022/10/06 02:28:15;;;;;;;11.25;2.20;;;15.60;99.90;;;;;;5031459;28;20041;-78
2022/10/06 02:30:43;;;;;;;9.00;2.03;;;15.50;99.90;;;;;;5013403;28;20132;-77
2022/10/06 02:33:11;;;;;;;10.63;2.05;;;15.60;99.90;;;;;;5013267;28;20042;-77
2022/10/06 02:35:41;;;;;;;11.25;2.17;;;15.50;99.90;;;;;;5028910;28;20054;-77
2022/10/06 02:38:08;;;;;;;9.23;2.05;;;15.50;99.90;;;;;;5013301;28;20119;-77
2022/10/06 02:40:35;;;;;;;10.07;2.20;;;15.50;99.90;;;;;;5031254;28;20638;-77
2022/10/06 02:43:02;;;;;;;15.85;2.45;;;15.50;99.90;;;;;;5031060;28;20072;-77
2022/10/06 02:45:30;;;;;;;11.70;2.40;;;15.50;99.90;;;;;;5012982;28;20069;-77
2022/10/06 02:47:57;;;;;;;12.45;2.53;;;15.50;99.90;;;;;;5013205;28;20069;-77
2022/10/06 02:50:25;;;;;;;9.73;2.05;;;15.50;99.90;;;;;;5013274;28;20136;-77
2022/10/06 02:52:52;;;;;;;11.63;2.20;;;15.50;99.90;;;;;;5013203;28;20045;-77
2022/10/06 02:55:19;;;;;;;10.38;2.45;;;15.50;99.90;;;;;;5030813;28;20049;-77
2022/10/06 02:57:46;;;;;;;10.50;2.80;;;15.40;99.90;;;;;;5012926;28;20787;-77
2022/10/06 03:00:15;;;;;;;8.65;2.50;;;15.40;99.90;;;;;;5013062;28;20041;-77
2022/10/06 03:02:42;;;;;;;10.35;2.47;;;15.40;99.90;;;;;;5030753;28;20119;-77
2022/10/06 03:05:10;;;;;;;11.15;2.25;;;15.40;99.90;;;;;;5012159;28;20136;-77
2022/10/06 03:07:38;;;;;;;11.73;2.75;;;15.40;99.90;;;;;;5012182;28;20041;-77
2022/10/06 03:10:05;;;;;;;10.73;2.70;;;15.40;99.90;;;;;;5019318;28;20140;-77
2022/10/06 03:12:33;;;;;;;9.88;2.33;;;15.30;99.90;;;;;;5017377;28;20046;-77
2022/10/06 03:15:00;;;;;;;9.45;2.40;;;15.30;99.90;;;;;;5004837;28;20060;-77
2022/10/06 03:17:28;;;;;;;10.55;2.13;;;15.40;99.90;;;;;;5023235;28;20521;-77
2022/10/06 03:19:56;;;;;;;14.15;2.33;;;15.30;99.90;;;;;;5019486;28;20132;-77
2022/10/06 03:22:24;;;;;;;7.13;1.77;;;15.30;99.90;;;;;;5012401;28;20140;-77
2022/10/06 03:24:55;;;;;;;9.05;1.70;;;15.30;99.90;;;;;;5012151;28;20671;-77
2022/10/06 03:27:22;;;;;;;10.38;2.38;;;15.30;99.90;;;;;;5012581;28;20055;-77
2022/10/06 03:29:51;;;;;;;9.18;2.00;;;15.20;99.90;;;;;;5010141;28;20149;-77
2022/10/06 03:32:22;;;;;;;9.35;1.83;;;15.20;99.90;;;;;;5000880;28;20057;-77
2022/10/06 03:34:52;;;;;;;10.05;2.38;;;15.20;99.90;;;;;;5016256;28;20042;-77
2022/10/06 03:37:19;;;;;;;10.32;2.13;;;15.10;99.90;;;;;;5018897;28;20045;-77
2022/10/06 03:39:46;;;;;;;9.77;2.45;;;15.10;99.90;;;;;;5019894;28;20068;-77
2022/10/06 03:42:14;;;;;;;16.02;2.63;;;15.10;99.90;;;;;;5000751;28;20053;-77
2022/10/06 03:44:42;;;;;;;8.75;2.20;;;15.10;99.90;;;;;;4999540;28;20057;-77
2022/10/06 03:47:08;;;;;;;9.05;2.40;;;15.10;99.90;;;;;;4999529;28;20049;-77
2022/10/06 03:49:37;;;;;;;8.27;2.15;;;15.00;99.90;;;;;;5020209;28;20559;-77
2022/10/06 03:52:05;;;;;;;16.98;3.08;;;15.00;99.90;;;;;;5018842;28;20045;-77
2022/10/06 03:54:36;;;;;;;10.75;2.25;;;15.00;99.90;;;;;;5005162;28;20042;-77
2022/10/06 03:57:03;;;;;;;11.75;3.08;;;15.00;99.90;;;;;;4999615;28;20580;-77
2022/10/06 03:59:33;;;;;;;12.70;2.42;;;15.00;99.90;;;;;;5003534;28;20519;-77
2022/10/06 04:02:00;;;;;;;19.03;3.20;;;15.00;99.90;;;;;;5018136;28;20227;-77
2022/10/06 04:04:31;;;;;;;12.82;3.15;;;14.90;99.90;;;;;;5019441;28;20045;-77
2022/10/06 04:07:02;;;;;;;11.15;2.38;;;14.90;99.90;;;;;;5012701;28;20510;-77
2022/10/06 04:09:29;;;;;;;13.88;2.45;;;14.90;99.90;;;;;;5003513;28;20049;-77
2022/10/06 04:11:57;;;;;;;14.25;3.10;;;14.90;99.90;;;;;;5002939;28;20033;-77
2022/10/06 04:14:24;;;;;;;15.10;2.67;;;15.00;99.90;;;;;;4999406;28;20100;-77
2022/10/06 04:16:52;;;;;;;16.27;3.50;;;14.90;99.90;;;;;;5015285;28;20406;-77
2022/10/06 04:19:28;;;;;;;13.65;2.45;;;14.90;99.90;;;;;;5019292;28;20045;-77
2022/10/06 04:21:56;;;;;;;12.40;2.47;;;14.80;99.90;;;;;;5019288;28;20145;-78
2022/10/06 04:24:24;;;;;;;13.18;2.80;;;14.80;99.90;;;;;;5009569;28;20144;-77
2022/10/06 04:26:52;;;;;;;15.00;3.22;;;14.80;99.90;;;;;;5010766;28;20095;-77
2022/10/06 04:29:20;;;;;;;13.40;2.65;;;14.80;99.90;;;;;;5010529;28;20045;-78
2022/10/06 04:31:56;;;;;;;14.75;3.00;;;14.80;99.90;;;;;;5003209;28;20064;-77
2022/10/06 04:34:31;;;;;;;13.85;2.83;;;14.70;99.90;;;;;;5021905;23;20145;-80
2022/10/06 04:36:58;;;;;;;13.90;2.80;;;14.70;99.90;;;;;;4997110;28;20052;-80
2022/10/06 04:39:26;;;;;;;14.95;2.90;;;14.70;99.90;;;;;;4991659;28;20136;-80
2022/10/06 04:41:53;;;;;;;15.00;2.58;;;14.70;99.90;;;;;;5009824;28;20051;-80
2022/10/06 04:44:24;;;;;;;11.30;2.40;;;14.70;99.90;;;;;;5007668;28;20065;-80
2022/10/06 04:46:53;;;;;;;13.60;2.70;;;14.70;99.90;;;;;;4987704;28;20612;-80
2022/10/06 04:49:22;;;;;;;14.77;2.78;;;14.70;99.90;;;;;;4991574;28;20042;-80
2022/10/06 04:51:51;;;;;;;11.00;2.50;;;14.60;99.90;;;;;;4991616;28;20049;-80
2022/10/06 04:54:19;;;;;;;13.30;2.35;;;14.60;99.90;;;;;;4991219;28;20049;-79
2022/10/06 04:56:47;;;;;;;10.68;3.05;;;14.60;99.90;;;;;;4991659;28;20039;-80
2022/10/06 04:59:16;;;;;;;13.52;2.90;;;14.60;99.90;;;;;;4990307;28;20105;-80
2022/10/06 05:01:44;;;;;;;18.50;3.03;;;14.60;99.90;;;;;;4998676;28;20046;-80
2022/10/06 05:04:13;;;;;;;23.70;3.58;;;14.50;99.90;;;;;;4990532;28;20052;-79
2022/10/06 05:06:42;;;;;;;16.88;2.75;;;14.50;99.90;;;;;;4991179;28;20045;-80
2022/10/06 05:09:13;;;;;;;14.95;3.38;;;14.50;99.90;;;;;;5017643;28;20770;-80
2022/10/06 05:11:48;;;;;;;16.00;3.90;;;14.40;99.90;;;;;;5010942;28;20202;-80
2022/10/06 05:14:18;;;;;;;13.05;2.88;;;14.50;99.90;;;;;;5002807;28;20418;-79
2022/10/06 05:16:47;;;;;;;14.23;3.05;;;14.50;99.90;;;;;;5011534;28;20042;-79
2022/10/06 05:19:15;;;;;;;18.30;3.78;;;14.40;99.90;;;;;;5007580;28;20058;-80
2022/10/06 05:21:44;;;;;;;14.57;3.40;;;14.40;99.90;;;;;;5006516;28;20053;-80
2022/10/06 05:24:16;;;;;;;13.60;3.15;;;14.40;99.90;;;;;;5012863;28;20053;-80
2022/10/06 05:26:43;;;;;;;15.45;3.65;;;14.30;99.90;;;;;;5009650;28;20049;-80
2022/10/06 05:29:13;;;;;;;23.02;3.60;;;14.30;99.90;;;;;;4997856;28;20502;-80
2022/10/06 05:31:42;;;;;;;13.20;3.22;;;14.30;99.90;;;;;;5003235;28;20137;-80
2022/10/06 05:34:09;;;;;;;12.93;3.85;;;14.20;99.90;;;;;;5011100;28;20041;-80
2022/10/06 05:36:36;;;;;;;11.70;3.00;;;14.20;99.90;;;;;;5011106;28;20417;-83
2022/10/06 05:39:06;;;;;;;17.30;3.28;;;14.20;99.90;;;;;;5008777;28;20526;-83
2022/10/06 05:41:44;;;;;;;15.10;3.03;;;14.20;99.90;;;;;;5010945;28;20050;-80
2022/10/06 05:44:13;;;;;;;20.20;3.45;;;14.20;99.90;;;;;;4994623;28;20046;-79
2022/10/06 05:46:41;;;;;;;14.88;3.20;;;14.20;99.90;;;;;;4987382;28;20046;-79
2022/10/06 05:49:11;;;;;;;16.15;3.20;;;14.20;99.90;;;;;;5002656;28;20411;-79
2022/10/06 05:51:42;;;;;;;20.23;2.85;;;14.10;99.90;;;;;;4994514;28;20559;-79
2022/10/06 05:54:21;;;;;;;17.48;3.13;;;14.10;99.90;;;;;;5007398;28;20507;-79
2022/10/06 05:56:49;;;;;;;19.40;2.88;;;14.10;99.90;;;;;;5017674;28;20510;-78
2022/10/06 05:59:16;;;;;;;15.30;2.90;;;14.10;99.90;;;;;;5008538;28;20132;-80
2022/10/06 06:01:44;;;;;;;11.40;2.75;;;14.00;99.90;;;;;;5003935;28;20056;-78
2022/10/06 06:04:19;;;;;;;12.95;2.72;;;14.00;99.90;;;;;;5007519;28;20038;-78
2022/10/06 06:06:49;;;;;;;17.42;2.97;;;14.00;99.90;;;;;;4975008;28;20054;-78
2022/10/06 06:09:22;;;;;;;15.52;2.95;;;14.00;99.90;;;;;;4974389;28;20105;-78
2022/10/06 06:11:54;;;;;;;13.55;2.53;;;14.00;99.90;;;;;;4974912;28;20416;-78
2022/10/06 06:17:13;;;;;;;11.75;2.15;;;13.90;99.90;;;;;;4974607;28;20065;-78
2022/10/06 06:19:40;;;;;;;13.00;2.42;;;14.00;99.90;;;;;;4974978;28;20058;-78
2022/10/06 06:22:08;;;;;;;18.15;2.67;;;13.90;99.90;;;;;;4986671;28;20042;-78
2022/10/06 06:24:39;;;;;;;14.00;2.30;;;13.90;99.90;;;;;;4974306;28;20106;-78
2022/10/06 06:27:08;;;;;;;15.30;3.10;;;13.90;99.90;;;;;;4974519;28;20525;-78
2022/10/06 06:29:35;;;;;;;9.68;2.47;;;13.90;99.90;;;;;;4992238;28;20529;-78
2022/10/06 06:32:01;;;;;;;11.57;2.53;;;14.00;99.90;;;;;;4974499;28;20078;-78
2022/10/06 06:34:28;;;;;;;13.70;2.63;;;14.10;99.90;;;;;;4973835;28;20042;-78
2022/10/06 06:36:57;;;;;;;11.07;2.80;;;14.00;99.90;;;;;;4974618;28;20116;-78
2022/10/06 06:39:25;;;;;;;11.38;2.58;;;14.00;99.90;;;;;;4990773;28;20510;-78
2022/10/06 06:41:53;;;;;;;13.73;2.58;;;14.00;99.90;;;;;;4974575;28;20062;-78
2022/10/06 06:44:40;;;;;;;18.52;2.85;;;14.00;99.90;;;;;;4970746;28;20055;-78
2022/10/06 06:47:21;;;;;;;14.02;2.50;;;14.00;99.90;;;;;;4974388;28;20058;-78
2022/10/06 06:49:48;;;;;;;15.70;3.40;;;14.00;99.90;;;;;;4974419;28;20069;-78
2022/10/06 06:52:16;;;;;;;16.50;2.63;;;14.00;99.90;;;;;;4974178;28;20128;-78
2022/10/06 06:54:44;;;;;;;16.13;2.88;;;14.00;99.90;;;;;;4973839;28;20093;-79
2022/10/06 06:57:15;;;;;;;13.82;2.67;;;14.00;99.90;;;;;;4974137;28;20077;-78
2022/10/06 06:59:42;;;;;;;12.63;2.33;;;14.10;99.90;;;;;;4974108;28;20058;-78
2022/10/06 07:02:11;;;;;;;16.15;2.95;;;14.10;99.90;;;;;;4973959;28;20049;-78
2022/10/06 07:04:42;;;;;;;13.68;2.50;;;14.10;99.90;;;;;;4973510;28;20054;-78
2022/10/06 07:07:11;;;;;;;18.90;2.90;;;14.10;99.90;;;;;;4973876;28;20046;-79
2022/10/06 07:09:38;;;;;;;15.90;2.80;;;14.10;99.90;;;;;;4973757;28;20054;-79
2022/10/06 07:12:10;;;;;;;18.10;3.07;;;14.10;99.90;;;;;;4973935;28;20577;-79
2022/10/06 07:25:05;;;;;;;12.77;2.67;;;14.20;99.90;;;;;;4973490;28;20067;-79
2022/10/06 07:25:43;;;;;;;13.85;2.70;;;14.30;99.90;;;;;;4972982;28;20271;-79
2022/10/06 07:28:11;;;;;;;18.60;3.25;;;14.40;99.90;;;;;;4975951;28;20072;-79
2022/10/06 07:30:40;;;;;;;17.17;2.92;;;14.40;99.90;;;;;;4973274;28;20061;-78
2022/10/06 07:33:10;;;;;;;22.13;3.95;;;14.40;99.90;;;;;;4973582;28;20050;-79
2022/10/06 07:35:39;;;;;;;18.08;3.22;;;14.50;99.90;;;;;;4972729;28;20050;-78
2022/10/06 07:38:06;;;;;;;13.80;3.38;;;14.60;99.90;;;;;;4973407;28;20042;-78
2022/10/06 07:40:37;;;;;;;26.45;3.53;;;14.50;99.90;;;;;;4973559;28;20069;-78
2022/10/06 07:43:07;;;;;;;14.40;3.33;;;14.60;99.90;;;;;;4973056;28;20132;-78
2022/10/06 07:45:44;;;;;;;17.65;3.60;;;14.60;99.90;;;;;;4972981;28;20057;-78
2022/10/06 07:48:31;;;;;;;16.63;3.97;;;14.60;99.90;;;;;;4980297;28;20069;-78
2022/10/06 07:51:05;;;;;;;;;;;14.70;99.90;;;;;;4973818;28;20354;-78
2022/10/06 07:53:36;;;;;;;16.05;3.33;;;14.70;99.90;;;;;;4972968;28;19997;-78
2022/10/06 07:56:15;;;;;;;16.30;3.00;;;14.80;99.90;;;;;;4972758;28;20116;-78
2022/10/06 07:58:47;;;;;;;15.55;3.28;;;14.80;99.90;;;;;;4973254;28;20124;-78
2022/10/06 08:01:17;;;;;;;25.38;4.00;;;14.80;99.90;;;;;;4990475;28;20038;-78
2022/10/06 08:03:47;;;;;;;18.15;4.22;;;14.90;99.90;;;;;;4990456;28;20068;-78
2022/10/06 08:06:16;;;;;;;17.90;3.78;;;14.90;99.90;;;;;;4989992;28;20046;-78
2022/10/06 08:08:43;;;;;;;24.60;4.03;;;15.00;99.90;;;;;;4990343;28;20069;-78
2022/10/06 08:11:11;;;;;;;15.57;3.50;;;15.00;99.90;;;;;;4990319;28;20057;-79
2022/10/06 08:13:40;;;;;;;21.50;3.78;;;15.00;99.90;;;;;;4990155;28;20054;-78
2022/10/06 08:16:08;;;;;;;17.45;3.35;;;15.10;99.90;;;;;;4989785;28;20078;-78
2022/10/06 08:18:37;;;;;;;19.35;3.55;;;15.10;99.90;;;;;;4990171;28;20053;-80
2022/10/06 08:21:09;;;;;;;17.02;3.20;;;15.10;99.90;;;;;;4990258;28;20061;-81
2022/10/06 08:23:39;;;;;;;20.40;4.00;;;15.20;99.90;;;;;;4990103;28;20072;-78
2022/10/06 08:26:06;;;;;;;18.75;3.80;;;15.20;99.90;;;;;;4989884;28;20053;-78
2022/10/06 08:28:34;;;;;;;21.00;4.72;;;15.30;99.90;;;;;;4990201;28;20055;-79
2022/10/06 08:31:04;;;;;;;16.90;3.42;;;15.20;99.90;;;;;;4994549;28;20061;-80
2022/10/06 08:33:31;;;;;;;19.73;3.20;;;15.30;99.90;;;;;;5008930;28;20045;-78
2022/10/06 08:36:04;;;;;;;20.05;3.70;;;15.40;99.90;;;;;;5009236;28;20084;-78
2022/10/06 08:38:31;;;;;;;24.10;4.47;;;15.40;99.90;;;;;;5009595;28;20052;-78
2022/10/06 08:40:58;;;;;;;27.27;3.85;;;15.40;99.90;;;;;;5009510;28;20209;-78
2022/10/06 08:43:26;;;;;;;22.92;4.00;;;15.40;99.90;;;;;;5009253;28;20046;-78
2022/10/06 08:45:58;;;;;;;18.08;3.60;;;15.50;99.90;;;;;;5009230;28;20046;-79
2022/10/06 08:48:27;;;;;;;21.60;3.78;;;15.50;99.90;;;;;;5009403;28;20046;-78
2022/10/06 08:51:05;;;;;;;17.55;3.17;;;15.60;99.90;;;;;;5009408;28;20395;-78
2022/10/06 08:53:39;;;;;;;15.43;3.35;;;15.60;99.90;;;;;;4991791;28;20422;-78
2022/10/06 08:56:16;;;;;;;22.65;4.22;;;15.70;99.90;;;;;;5009091;28;20388;-78
2022/10/06 08:58:51;;;;;;;20.13;3.53;;;15.70;99.90;;;;;;5009439;28;20054;-78
2022/10/06 09:01:22;;;;;;;18.75;3.20;;;15.80;99.90;;;;;;5009565;28;20133;-78
2022/10/06 09:03:51;;;;;;;23.90;3.92;;;15.80;99.90;;;;;;5009481;28;20136;-78
2022/10/06 09:06:28;;;;;;;15.63;3.42;;;15.80;99.90;;;;;;5008960;28;20702;-79
2022/10/06 09:08:59;;;;;;;21.73;3.63;;;15.80;99.90;;;;;;5009193;28;20462;-78
2022/10/06 09:11:43;;;;;;;15.43;3.22;;;15.80;99.90;;;;;;5009359;28;20046;-78
2022/10/06 09:14:14;;;;;;;20.50;4.63;;;15.80;99.90;;;;;;5009084;28;20053;-79
2022/10/06 09:16:42;;;;;;;20.27;3.95;;;15.90;99.90;;;;;;5008983;28;20038;-78
2022/10/06 09:19:14;;;;;;;18.30;3.58;;;15.90;99.90;;;;;;5006615;28;20070;-79
2022/10/06 09:21:44;;;;;;;15.00;3.60;;;15.90;99.90;;;;;;4989756;28;20481;-78
2022/10/06 09:24:15;;;;;;;15.40;3.13;;;16.00;99.90;;;;;;4989547;28;20419;-78
2022/10/06 09:26:44;;;;;;;18.58;3.40;;;16.00;99.90;;;;;;4989264;28;20042;-78
2022/10/06 09:29:11;;;;;;;19.95;3.38;;;16.00;99.90;;;;;;4989464;28;20061;-78
2022/10/06 09:31:40;;;;;;;23.88;3.88;;;16.00;99.90;;;;;;4989534;28;20046;-78
2022/10/06 09:34:14;;;;;;;17.15;3.47;;;16.10;99.90;;;;;;4989416;28;20070;-78
2022/10/06 09:36:58;;;;;;;20.92;3.85;;;16.10;99.90;;;;;;4989201;28;20046;-78
2022/10/06 09:39:32;;;;;;;17.23;3.03;;;16.10;99.90;;;;;;4989447;28;20050;-78
2022/10/06 09:42:02;;;;;;;20.10;3.33;;;16.10;99.90;;;;;;4989314;28;20050;-79
2022/10/06 09:44:33;;;;;;;16.92;4.03;;;16.20;99.90;;;;;;4990343;28;20050;-78
2022/10/06 09:47:00;;;;;;;18.85;3.47;;;16.10;99.90;;;;;;4993043;28;20496;-78
2022/10/06 09:49:30;;;;;;;18.85;2.90;;;16.20;99.90;;;;;;4992823;28;20050;-78
2022/10/06 09:52:03;;;;;;;15.65;3.20;;;16.20;99.90;;;;;;4992787;28;20058;-78
2022/10/06 09:54:33;;;;;;;14.65;3.83;;;16.20;99.90;;;;;;4992282;28;20049;-79
2022/10/06 09:57:08;;;;;;;14.68;3.10;;;16.20;99.90;;;;;;4992659;28;20125;-78
2022/10/06 09:59:37;;;;;;;15.05;3.58;;;16.30;99.90;;;;;;4992878;28;20045;-78
2022/10/06 10:02:04;;;;;;;14.68;3.05;;;16.30;99.90;;;;;;4992686;28;20145;-79
2022/10/06 10:04:33;;;;;;;17.17;3.78;;;16.50;99.90;;;;;;4992376;28;20046;-79
2022/10/06 10:07:16;;;;;;;16.77;3.20;;;16.40;99.90;;;;;;4992512;28;20043;-79
2022/10/06 10:09:44;;;;;;;13.27;3.13;;;16.40;99.90;;;;;;4992611;28;20046;-78
2022/10/06 10:12:30;;;;;;;13.75;3.60;;;16.40;99.90;;;;;;4992503;28;20042;-78
2022/10/06 10:15:02;;;;;;;13.80;2.78;;;16.40;99.90;;;;;;4992139;28;20050;-79
2022/10/06 10:17:39;;;;;;;19.17;4.05;;;16.50;99.90;;;;;;4992499;28;20072;-79
2022/10/06 10:20:19;;;;;;;20.95;2.80;;;16.50;99.90;;;;;;4992411;28;20057;-78
2022/10/06 10:22:48;;;;;;;15.75;2.58;;;16.50;99.90;;;;;;4994521;28;20053;-79
2022/10/06 10:25:31;;;;;;;14.63;3.70;;;16.50;99.90;;;;;;5011448;28;20054;-79
2022/10/06 10:28:03;;;;;;;18.08;3.53;;;16.60;99.90;;;;;;5011644;28;20049;-79
2022/10/06 10:30:31;;;;;;;12.52;2.72;;;16.60;99.90;;;;;;5011779;28;20050;-78
2022/10/06 10:33:03;;;;;;;14.75;3.33;;;16.60;99.90;;;;;;5011605;28;20046;-79
2022/10/06 10:35:32;;;;;;;15.93;3.25;;;16.60;99.90;;;;;;5051663;22;20055;-76
2022/10/06 10:38:04;;;;;;;15.63;2.50;;;16.60;99.90;;;;;;5051241;28;20080;-76
2022/10/06 10:40:44;;;;;;;9.98;2.13;;;16.70;99.90;;;;;;5051253;28;20448;-76
2022/10/06 10:43:16;;;;;;;15.73;2.60;;;16.70;99.90;;;;;;5051263;28;20056;-75
2022/10/06 10:45:46;;;;;;;10.00;2.50;;;16.70;99.90;;;;;;5050858;28;20464;-76
2022/10/06 10:48:16;;;;;;;10.48;2.17;;;16.80;99.90;;;;;;5051084;28;20067;-75
2022/10/06 10:50:53;;;;;;;12.00;2.72;;;16.70;99.90;;;;;;5051118;28;20045;-75
2022/10/06 10:53:28;;;;;;;10.95;2.15;;;16.70;99.90;;;;;;5051150;28;20048;-75
2022/10/06 10:55:57;;;;;;;12.63;2.88;;;16.70;99.90;;;;;;5049919;28;20497;-75
2022/10/06 10:58:29;;;;;;;12.38;2.90;;;16.80;99.90;;;;;;5050948;28;20045;-75
2022/10/06 11:01:02;;;;;;;12.02;2.67;;;16.80;99.90;;;;;;5050861;28;20048;-75
2022/10/06 11:03:29;;;;;;;15.20;2.75;;;16.90;99.90;;;;;;5050822;28;20512;-75
2022/10/06 11:06:24;;;;;;;14.85;2.72;;;16.90;99.90;;;;;;5050336;28;20513;-75
2022/10/06 11:08:56;;;;;;;15.30;2.55;;;16.90;99.90;;;;;;5032844;28;20064;-76
2022/10/06 11:11:37;;;;;;;14.75;2.90;;;16.90;99.90;;;;;;5050594;28;20056;-75
2022/10/06 11:14:05;;;;;;;;;;;16.90;99.90;;;;;;5051210;28;20051;-75
2022/10/06 11:16:39;;;;;;;13.30;2.33;;;16.90;99.90;;;;;;5050274;28;19928;-75
2022/10/06 11:19:16;;;;;;;10.43;2.25;;;16.90;99.90;;;;;;5050525;28;20053;-75
2022/10/06 11:21:48;;;;;;;17.02;2.72;;;16.90;99.90;;;;;;5050547;28;20044;-76
2022/10/06 11:24:22;;;;;;;12.40;2.60;;;16.90;99.90;;;;;;5050074;28;20106;-75
2022/10/06 11:27:15;;;;;;;14.82;2.63;;;16.90;99.90;;;;;;5050597;28;20387;-76
2022/10/06 11:29:48;;;;;;;12.75;2.30;;;16.90;99.90;;;;;;5045867;28;20067;-76
2022/10/06 11:32:24;;;;;;;13.82;2.20;;;16.90;99.90;;;;;;5050261;28;20052;-75
2022/10/06 11:34:51;;;;;;;14.02;2.90;;;16.90;99.90;;;;;;5049739;28;20098;-76
2022/10/06 11:37:25;;;;;;;16.15;2.45;;;17.00;99.90;;;;;;5050031;28;20036;-75
2022/10/06 11:39:57;;;;;;;8.23;2.05;;;17.00;99.90;;;;;;5050010;28;20056;-76
2022/10/06 11:42:30;;;;;;;12.93;2.03;;;17.00;99.90;;;;;;5050112;28;20057;-75
2022/10/06 11:45:02;;;;;;;12.93;2.33;;;17.00;99.90;;;;;;5049548;28;20506;-75
2022/10/06 11:47:32;;;;;;;12.90;2.15;;;17.00;99.90;;;;;;5031943;28;20077;-76
2022/10/06 11:49:59;;;;;;;16.35;2.58;;;17.00;99.90;;;;;;5049887;28;20517;-75
2022/10/06 11:52:45;;;;;;;14.63;2.25;;;17.00;99.40;;;;;;5049878;28;20049;-75
2022/10/06 11:55:20;;;;;;;14.57;2.83;;;17.00;99.40;;;;;;5049526;28;20120;-75
2022/10/06 11:58:15;;;;;;;12.73;2.15;;;17.00;99.80;;;;;;5049920;28;20048;-76
2022/10/06 12:00:46;;;;;;;10.63;2.60;;;17.00;98.90;;;;;;5049840;28;20072;-76
2022/10/06 12:03:53;;;;;;;12.27;2.60;;;17.00;97.70;;;;;;5049769;28;20871;-75
2022/10/06 12:06:51;;;;;;;10.43;2.30;;;17.00;99.00;;;;;;5049410;28;20048;-75
2022/10/06 12:09:51;;;;;;;12.18;2.53;;;17.00;98.40;;;;;;5049011;28;20136;-75
2022/10/06 12:12:52;;;;;;;10.50;2.30;;;16.90;98.20;;;;;;5049740;28;20041;-76
2022/10/06 12:15:54;;;;;;;13.05;2.88;;;16.90;98.60;;;;;;5031056;28;20075;-75
2022/10/06 12:18:29;;;;;;;10.73;2.35;;;16.90;98.40;;;;;;5031488;28;20048;-75
2022/10/06 12:21:06;;;;;;;9.80;2.00;;;17.00;98.00;;;;;;5049433;28;20111;-75
2022/10/06 12:23:43;;;;;;;11.13;2.40;;;17.00;96.60;;;;;;5049361;28;20048;-76
2022/10/06 12:26:31;;;;;;;13.07;2.60;;;16.90;96.60;;;;;;5049167;28;20044;-76
2022/10/06 12:29:03;;;;;;;14.02;2.47;;;16.90;95.90;;;;;;5049514;28;20508;-76
2022/10/06 12:31:44;;;;;;;8.95;1.70;;;17.00;96.80;;;;;;5049371;28;20049;-75
2022/10/06 12:34:43;;;;;;;5.38;1.58;;;17.00;96.20;;;;;;5048504;28;20064;-75
2022/10/06 12:37:40;;;;;;;9.60;1.40;;;17.00;96.20;;;;;;5049300;28;20045;-75
2022/10/06 12:40:45;;;;;;;9.45;1.90;;;17.00;94.80;;;;;;5043167;28;20144;-75
2022/10/06 12:43:32;;;;;;;9.30;1.70;;;17.00;95.50;;;;;;5049055;28;20124;-75
2022/10/06 12:46:00;;;;;;;10.40;1.98;;;17.00;96.20;;;;;;5048678;28;20041;-75
2022/10/06 12:48:35;;;;;;;11.18;1.90;;;17.00;96.90;;;;;;5048997;28;20041;-76
2022/10/06 12:51:07;;;;;;;10.18;1.88;;;17.00;96.70;;;;;;5049062;28;20045;-76
2022/10/06 12:53:38;;;;;;;8.52;1.70;;;17.00;96.40;;;;;;5030774;28;20049;-76
2022/10/06 12:56:05;;;;;;;;;;;17.00;96.60;;;;;;5049009;28;20052;-76
2022/10/06 12:58:33;;;;;;;7.80;1.35;;;17.00;96.30;;;;;;5048836;28;20408;-76
2022/10/06 13:01:01;;;;;;;7.50;1.42;;;17.00;96.10;;;;;;5048891;28;20155;-76
2022/10/06 13:03:30;;;;;;;10.48;1.80;;;17.00;94.80;;;;;;5048985;28;20045;-75
2022/10/06 13:05:59;;;;;;;7.15;1.63;;;17.00;94.20;;;;;;5048512;28;20400;-75
2022/10/06 13:08:28;;;;;;;7.28;1.60;;;17.10;94.20;;;;;;5048931;28;20560;-76
2022/10/06 13:11:13;;;;;;;10.30;1.85;;;17.00;94.30;;;;;;5048917;28;20055;-76